sensor_id;sensor_type;location;lat;lon;timestamp;P1;durP1;ratioP1;P2;durP2;ratioP2
38787;SDS011;24536;45.488;12.238;2023-03-15T00:00:38;3.63;;;1.48;;
38787;SDS011;24536;45.488;12.238;2023-03-15T00:03:06;1.95;;;1.58;;
38787;SDS011;24536;45.488;12.238;2023-03-15T00:05:32;2.35;;;1.30;;
38787;SDS011;24536;45.488;12.238;2023-03-15T00:07:58;2.97;;;1.08;;
38787;SDS011;24536;45.488;12.238;2023-03-15T00:10:24;2.05;;;1.30;;
38787;SDS011;24536;45.488;12.238;2023-03-15T00:12:49;2.47;;;1.20;;
38787;SDS011;24536;45.488;12.238;2023-03-15T00:15:15;2.47;;;1.30;;
38787;SDS011;24536;45.488;12.238;2023-03-15T00:17:41;3.58;;;1.70;;
38787;SDS011;24536;45.488;12.238;2023-03-15T00:20:09;2.20;;;1.23;;
38787;SDS011;24536;45.488;12.238;2023-03-15T00:22:35;1.73;;;1.17;;
38787;SDS011;24536;45.488;12.238;2023-03-15T00:25:00;2.22;;;1.45;;
38787;SDS011;24536;45.488;12.238;2023-03-15T00:27:26;1.83;;;1.20;;
38787;SDS011;24536;45.488;12.238;2023-03-15T00:29:52;1.30;;;1.10;;
38787;SDS011;24536;45.488;12.238;2023-03-15T00:32:18;1.83;;;1.15;;
38787;SDS011;24536;45.488;12.238;2023-03-15T00:34:43;2.10;;;1.10;;
38787;SDS011;24536;45.488;12.238;2023-03-15T00:37:13;2.93;;;1.37;;
38787;SDS011;24536;45.488;12.238;2023-03-15T00:39:41;2.47;;;1.27;;
38787;SDS011;24536;45.488;12.238;2023-03-15T00:42:09;2.78;;;1.58;;
38787;SDS011;24536;45.488;12.238;2023-03-15T00:44:41;2.97;;;1.40;;
38787;SDS011;24536;45.488;12.238;2023-03-15T00:47:11;1.45;;;1.10;;
38787;SDS011;24536;45.488;12.238;2023-03-15T00:49:39;1.67;;;1.10;;
38787;SDS011;24536;45.488;12.238;2023-03-15T00:52:05;1.08;;;0.98;;
38787;SDS011;24536;45.488;12.238;2023-03-15T00:54:31;1.55;;;1.25;;
38787;SDS011;24536;45.488;12.238;2023-03-15T00:57:00;2.20;;;1.30;;
38787;SDS011;24536;45.488;12.238;2023-03-15T00:59:30;1.95;;;1.30;;
38787;SDS011;24536;45.488;12.238;2023-03-15T01:02:02;2.05;;;1.67;;
38787;SDS011;24536;45.488;12.238;2023-03-15T01:06:55;2.42;;;1.30;;
38787;SDS011;24536;45.488;12.238;2023-03-15T01:09:21;3.70;;;1.40;;
38787;SDS011;24536;45.488;12.238;2023-03-15T01:11:47;2.45;;;1.80;;
38787;SDS011;24536;45.488;12.238;2023-03-15T01:14:13;2.20;;;1.50;;
38787;SDS011;24536;45.488;12.238;2023-03-15T01:16:39;3.40;;;2.33;;
38787;SDS011;24536;45.488;12.238;2023-03-15T01:19:05;3.00;;;2.53;;
38787;SDS011;24536;45.488;12.238;2023-03-15T01:21:30;4.28;;;3.00;;
38787;SDS011;24536;45.488;12.238;2023-03-15T01:23:56;6.45;;;3.75;;
38787;SDS011;24536;45.488;12.238;2023-03-15T01:26:22;4.43;;;3.42;;
38787;SDS011;24536;45.488;12.238;2023-03-15T01:28:47;4.85;;;3.60;;
38787;SDS011;24536;45.488;12.238;2023-03-15T01:31:35;5.95;;;3.50;;
38787;SDS011;24536;45.488;12.238;2023-03-15T01:33:59;5.10;;;3.30;;
38787;SDS011;24536;45.488;12.238;2023-03-15T01:36:25;5.80;;;4.43;;
38787;SDS011;24536;45.488;12.238;2023-03-15T01:38:51;4.47;;;3.55;;
38787;SDS011;24536;45.488;12.238;2023-03-15T01:41:18;7.25;;;4.70;;
38787;SDS011;24536;45.488;12.238;2023-03-15T01:43:43;5.60;;;3.80;;
38787;SDS011;24536;45.488;12.238;2023-03-15T01:48:58;7.75;;;4.32;;
38787;SDS011;24536;45.488;12.238;2023-03-15T01:56:34;5.90;;;4.28;;
38787;SDS011;24536;45.488;12.238;2023-03-15T01:59:02;5.38;;;3.97;;
38787;SDS011;24536;45.488;12.238;2023-03-15T02:01:30;8.60;;;4.82;;
38787;SDS011;24536;45.488;12.238;2023-03-15T02:04:04;7.55;;;4.25;;
38787;SDS011;24536;45.488;12.238;2023-03-15T02:06:33;4.85;;;3.72;;
38787;SDS011;24536;45.488;12.238;2023-03-15T02:09:01;8.05;;;4.75;;
38787;SDS011;24536;45.488;12.238;2023-03-15T02:11:38;4.47;;;3.85;;
38787;SDS011;24536;45.488;12.238;2023-03-15T02:14:05;7.55;;;4.40;;
38787;SDS011;24536;45.488;12.238;2023-03-15T02:16:33;5.85;;;4.63;;
38787;SDS011;24536;45.488;12.238;2023-03-15T02:18:59;5.85;;;3.85;;
38787;SDS011;24536;45.488;12.238;2023-03-15T02:24:13;6.53;;;3.85;;
38787;SDS011;24536;45.488;12.238;2023-03-15T02:26:54;5.82;;;3.90;;
38787;SDS011;24536;45.488;12.238;2023-03-15T02:29:21;4.85;;;3.83;;
38787;SDS011;24536;45.488;12.238;2023-03-15T02:31:49;5.50;;;3.75;;
38787;SDS011;24536;45.488;12.238;2023-03-15T02:34:16;4.78;;;3.65;;
38787;SDS011;24536;45.488;12.238;2023-03-15T02:36:42;6.65;;;4.18;;
38787;SDS011;24536;45.488;12.238;2023-03-15T02:39:15;5.55;;;3.58;;
38787;SDS011;24536;45.488;12.238;2023-03-15T02:41:57;6.25;;;3.92;;
38787;SDS011;24536;45.488;12.238;2023-03-15T02:46:55;7.47;;;4.10;;
38787;SDS011;24536;45.488;12.238;2023-03-15T02:49:26;10.20;;;4.68;;
38787;SDS011;24536;45.488;12.238;2023-03-15T02:51:54;6.43;;;4.55;;
38787;SDS011;24536;45.488;12.238;2023-03-15T02:54:19;7.55;;;4.50;;
38787;SDS011;24536;45.488;12.238;2023-03-15T02:56:45;6.53;;;4.15;;
38787;SDS011;24536;45.488;12.238;2023-03-15T02:59:10;6.60;;;4.63;;
38787;SDS011;24536;45.488;12.238;2023-03-15T03:01:37;5.60;;;4.40;;
38787;SDS011;24536;45.488;12.238;2023-03-15T03:04:02;5.97;;;4.60;;
38787;SDS011;24536;45.488;12.238;2023-03-15T03:06:28;7.47;;;4.40;;
38787;SDS011;24536;45.488;12.238;2023-03-15T03:08:54;5.90;;;4.70;;
38787;SDS011;24536;45.488;12.238;2023-03-15T03:11:20;5.70;;;4.53;;
38787;SDS011;24536;45.488;12.238;2023-03-15T03:13:46;5.93;;;4.38;;
38787;SDS011;24536;45.488;12.238;2023-03-15T03:16:11;5.22;;;4.43;;
38787;SDS011;24536;45.488;12.238;2023-03-15T03:18:38;9.20;;;4.90;;
38787;SDS011;24536;45.488;12.238;2023-03-15T03:21:05;5.82;;;4.28;;
38787;SDS011;24536;45.488;12.238;2023-03-15T03:23:32;8.35;;;5.32;;
38787;SDS011;24536;45.488;12.238;2023-03-15T03:25:59;5.85;;;4.53;;
38787;SDS011;24536;45.488;12.238;2023-03-15T03:28:26;6.85;;;4.65;;
38787;SDS011;24536;45.488;12.238;2023-03-15T03:30:53;9.23;;;4.93;;
38787;SDS011;24536;45.488;12.238;2023-03-15T03:33:20;8.55;;;4.93;;
38787;SDS011;24536;45.488;12.238;2023-03-15T03:35:47;6.25;;;4.88;;
38787;SDS011;24536;45.488;12.238;2023-03-15T03:38:14;7.63;;;4.60;;
38787;SDS011;24536;45.488;12.238;2023-03-15T03:40:40;8.88;;;4.75;;
38787;SDS011;24536;45.488;12.238;2023-03-15T03:43:06;8.43;;;4.75;;
38787;SDS011;24536;45.488;12.238;2023-03-15T03:45:32;6.50;;;4.82;;
38787;SDS011;24536;45.488;12.238;2023-03-15T03:47:58;6.90;;;5.00;;
38787;SDS011;24536;45.488;12.238;2023-03-15T03:50:24;8.10;;;4.82;;
38787;SDS011;24536;45.488;12.238;2023-03-15T03:52:50;6.32;;;4.72;;
38787;SDS011;24536;45.488;12.238;2023-03-15T03:55:16;9.23;;;5.82;;
38787;SDS011;24536;45.488;12.238;2023-03-15T03:57:42;6.13;;;4.75;;
38787;SDS011;24536;45.488;12.238;2023-03-15T04:00:09;6.88;;;4.65;;
38787;SDS011;24536;45.488;12.238;2023-03-15T04:02:38;8.02;;;5.13;;
38787;SDS011;24536;45.488;12.238;2023-03-15T04:05:07;7.28;;;4.95;;
38787;SDS011;24536;45.488;12.238;2023-03-15T04:07:35;6.38;;;5.47;;
38787;SDS011;24536;45.488;12.238;2023-03-15T04:10:00;9.15;;;5.47;;
38787;SDS011;24536;45.488;12.238;2023-03-15T04:12:26;7.15;;;5.30;;
38787;SDS011;24536;45.488;12.238;2023-03-15T04:14:52;8.43;;;6.00;;
38787;SDS011;24536;45.488;12.238;2023-03-15T04:17:18;9.05;;;5.15;;
38787;SDS011;24536;45.488;12.238;2023-03-15T04:19:44;7.55;;;5.43;;
38787;SDS011;24536;45.488;12.238;2023-03-15T04:22:10;7.97;;;5.03;;
38787;SDS011;24536;45.488;12.238;2023-03-15T04:24:42;8.52;;;5.18;;
38787;SDS011;24536;45.488;12.238;2023-03-15T04:27:08;8.55;;;5.15;;
38787;SDS011;24536;45.488;12.238;2023-03-15T04:29:38;6.38;;;4.65;;
38787;SDS011;24536;45.488;12.238;2023-03-15T04:32:06;8.80;;;5.05;;
38787;SDS011;24536;45.488;12.238;2023-03-15T04:34:32;6.45;;;5.22;;
38787;SDS011;24536;45.488;12.238;2023-03-15T04:36:57;10.02;;;5.88;;
38787;SDS011;24536;45.488;12.238;2023-03-15T04:39:23;8.20;;;5.65;;
38787;SDS011;24536;45.488;12.238;2023-03-15T04:41:49;12.13;;;6.20;;
38787;SDS011;24536;45.488;12.238;2023-03-15T04:44:15;9.77;;;6.03;;
38787;SDS011;24536;45.488;12.238;2023-03-15T04:46:41;8.15;;;5.70;;
38787;SDS011;24536;45.488;12.238;2023-03-15T04:49:07;10.75;;;6.25;;
38787;SDS011;24536;45.488;12.238;2023-03-15T04:51:33;9.23;;;6.13;;
38787;SDS011;24536;45.488;12.238;2023-03-15T04:53:59;9.35;;;6.28;;
38787;SDS011;24536;45.488;12.238;2023-03-15T04:56:25;10.50;;;5.90;;
38787;SDS011;24536;45.488;12.238;2023-03-15T04:58:52;9.63;;;6.28;;
38787;SDS011;24536;45.488;12.238;2023-03-15T05:01:18;8.57;;;6.20;;
38787;SDS011;24536;45.488;12.238;2023-03-15T05:03:51;9.07;;;7.00;;
38787;SDS011;24536;45.488;12.238;2023-03-15T05:06:17;9.82;;;6.40;;
38787;SDS011;24536;45.488;12.238;2023-03-15T05:08:43;9.13;;;6.30;;
38787;SDS011;24536;45.488;12.238;2023-03-15T05:11:09;11.18;;;6.63;;
38787;SDS011;24536;45.488;12.238;2023-03-15T05:13:35;9.50;;;6.55;;
38787;SDS011;24536;45.488;12.238;2023-03-15T05:16:01;9.02;;;6.55;;
38787;SDS011;24536;45.488;12.238;2023-03-15T05:18:27;8.93;;;6.55;;
38787;SDS011;24536;45.488;12.238;2023-03-15T05:20:53;8.82;;;6.30;;
38787;SDS011;24536;45.488;12.238;2023-03-15T05:23:23;8.88;;;7.03;;
38787;SDS011;24536;45.488;12.238;2023-03-15T05:25:53;9.00;;;6.50;;
38787;SDS011;24536;45.488;12.238;2023-03-15T05:28:22;10.05;;;5.95;;
38787;SDS011;24536;45.488;12.238;2023-03-15T05:30:49;7.63;;;5.47;;
38787;SDS011;24536;45.488;12.238;2023-03-15T05:33:18;8.55;;;6.47;;
38787;SDS011;24536;45.488;12.238;2023-03-15T05:35:45;6.78;;;5.80;;
38787;SDS011;24536;45.488;12.238;2023-03-15T05:38:11;8.57;;;6.40;;
38787;SDS011;24536;45.488;12.238;2023-03-15T05:40:47;9.90;;;6.35;;
38787;SDS011;24536;45.488;12.238;2023-03-15T05:43:13;9.63;;;6.10;;
38787;SDS011;24536;45.488;12.238;2023-03-15T05:45:38;7.07;;;5.90;;
38787;SDS011;24536;45.488;12.238;2023-03-15T05:48:05;7.65;;;5.88;;
38787;SDS011;24536;45.488;12.238;2023-03-15T05:50:30;7.57;;;5.47;;
38787;SDS011;24536;45.488;12.238;2023-03-15T05:52:56;8.32;;;6.00;;
38787;SDS011;24536;45.488;12.238;2023-03-15T05:55:22;9.30;;;5.35;;
38787;SDS011;24536;45.488;12.238;2023-03-15T05:57:48;7.72;;;5.60;;
38787;SDS011;24536;45.488;12.238;2023-03-15T06:00:14;8.70;;;6.07;;
38787;SDS011;24536;45.488;12.238;2023-03-15T06:02:41;7.82;;;5.63;;
38787;SDS011;24536;45.488;12.238;2023-03-15T06:05:08;7.72;;;5.43;;
38787;SDS011;24536;45.488;12.238;2023-03-15T06:07:34;6.78;;;4.97;;
38787;SDS011;24536;45.488;12.238;2023-03-15T06:10:00;8.35;;;5.93;;
38787;SDS011;24536;45.488;12.238;2023-03-15T06:12:25;12.60;;;6.05;;
38787;SDS011;24536;45.488;12.238;2023-03-15T06:14:51;10.52;;;6.40;;
38787;SDS011;24536;45.488;12.238;2023-03-15T06:17:19;9.02;;;6.20;;
38787;SDS011;24536;45.488;12.238;2023-03-15T06:19:44;8.48;;;5.25;;
38787;SDS011;24536;45.488;12.238;2023-03-15T06:22:10;8.00;;;5.97;;
38787;SDS011;24536;45.488;12.238;2023-03-15T06:24:42;10.38;;;5.95;;
38787;SDS011;24536;45.488;12.238;2023-03-15T06:27:08;8.05;;;5.88;;
38787;SDS011;24536;45.488;12.238;2023-03-15T06:29:34;8.32;;;5.38;;
38787;SDS011;24536;45.488;12.238;2023-03-15T06:31:59;8.32;;;5.32;;
38787;SDS011;24536;45.488;12.238;2023-03-15T06:34:25;8.25;;;5.75;;
38787;SDS011;24536;45.488;12.238;2023-03-15T06:36:51;9.38;;;4.60;;
38787;SDS011;24536;45.488;12.238;2023-03-15T06:39:16;10.25;;;5.28;;
38787;SDS011;24536;45.488;12.238;2023-03-15T06:41:42;6.65;;;4.38;;
38787;SDS011;24536;45.488;12.238;2023-03-15T06:44:08;9.80;;;5.82;;
38787;SDS011;24536;45.488;12.238;2023-03-15T06:46:34;6.72;;;4.57;;
38787;SDS011;24536;45.488;12.238;2023-03-15T06:49:00;6.45;;;4.60;;
38787;SDS011;24536;45.488;12.238;2023-03-15T06:51:27;7.47;;;4.45;;
38787;SDS011;24536;45.488;12.238;2023-03-15T06:53:53;7.80;;;3.80;;
38787;SDS011;24536;45.488;12.238;2023-03-15T06:56:19;5.70;;;3.83;;
38787;SDS011;24536;45.488;12.238;2023-03-15T06:58:44;9.55;;;3.60;;
38787;SDS011;24536;45.488;12.238;2023-03-15T07:01:11;6.70;;;4.00;;
38787;SDS011;24536;45.488;12.238;2023-03-15T07:03:38;8.73;;;4.38;;
38787;SDS011;24536;45.488;12.238;2023-03-15T07:06:04;11.60;;;5.03;;
38787;SDS011;24536;45.488;12.238;2023-03-15T07:08:29;6.75;;;4.72;;
38787;SDS011;24536;45.488;12.238;2023-03-15T07:10:55;10.55;;;6.28;;
38787;SDS011;24536;45.488;12.238;2023-03-15T07:13:21;12.75;;;7.75;;
38787;SDS011;24536;45.488;12.238;2023-03-15T07:15:54;18.70;;;9.48;;
38787;SDS011;24536;45.488;12.238;2023-03-15T07:18:20;13.30;;;9.52;;
38787;SDS011;24536;45.488;12.238;2023-03-15T07:20:46;14.00;;;9.95;;
38787;SDS011;24536;45.488;12.238;2023-03-15T07:23:19;12.45;;;9.27;;
38787;SDS011;24536;45.488;12.238;2023-03-15T07:25:46;12.98;;;8.35;;
38787;SDS011;24536;45.488;12.238;2023-03-15T07:28:13;9.82;;;6.82;;
38787;SDS011;24536;45.488;12.238;2023-03-15T07:30:38;8.15;;;6.03;;
38787;SDS011;24536;45.488;12.238;2023-03-15T07:33:04;12.05;;;6.15;;
38787;SDS011;24536;45.488;12.238;2023-03-15T07:35:30;8.75;;;4.90;;
38787;SDS011;24536;45.488;12.238;2023-03-15T07:37:55;11.75;;;5.50;;
38787;SDS011;24536;45.488;12.238;2023-03-15T07:40:21;6.93;;;3.70;;
38787;SDS011;24536;45.488;12.238;2023-03-15T07:42:47;4.15;;;2.15;;
38787;SDS011;24536;45.488;12.238;2023-03-15T07:45:13;1.80;;;1.30;;
38787;SDS011;24536;45.488;12.238;2023-03-15T07:47:39;6.85;;;2.00;;
38787;SDS011;24536;45.488;12.238;2023-03-15T07:50:05;4.97;;;1.40;;
38787;SDS011;24536;45.488;12.238;2023-03-15T07:52:31;2.90;;;0.95;;
38787;SDS011;24536;45.488;12.238;2023-03-15T07:54:57;2.10;;;0.75;;
38787;SDS011;24536;45.488;12.238;2023-03-15T07:57:23;3.40;;;1.08;;
38787;SDS011;24536;45.488;12.238;2023-03-15T07:59:49;3.40;;;0.75;;
38787;SDS011;24536;45.488;12.238;2023-03-15T08:02:16;3.60;;;0.80;;
38787;SDS011;24536;45.488;12.238;2023-03-15T08:04:42;2.78;;;0.75;;
38787;SDS011;24536;45.488;12.238;2023-03-15T08:07:08;4.40;;;0.80;;
38787;SDS011;24536;45.488;12.238;2023-03-15T08:09:35;2.15;;;0.60;;
38787;SDS011;24536;45.488;12.238;2023-03-15T08:12:00;4.47;;;0.80;;
38787;SDS011;24536;45.488;12.238;2023-03-15T08:14:26;5.97;;;1.17;;
38787;SDS011;24536;45.488;12.238;2023-03-15T08:16:53;5.22;;;1.52;;
38787;SDS011;24536;45.488;12.238;2023-03-15T08:19:19;1.65;;;0.60;;
38787;SDS011;24536;45.488;12.238;2023-03-15T08:21:46;2.47;;;0.68;;
38787;SDS011;24536;45.488;12.238;2023-03-15T08:24:12;1.17;;;0.60;;
38787;SDS011;24536;45.488;12.238;2023-03-15T08:26:38;1.52;;;0.40;;
38787;SDS011;24536;45.488;12.238;2023-03-15T08:29:04;0.70;;;0.40;;
38787;SDS011;24536;45.488;12.238;2023-03-15T08:31:29;2.15;;;0.55;;
38787;SDS011;24536;45.488;12.238;2023-03-15T08:33:55;1.65;;;0.63;;
38787;SDS011;24536;45.488;12.238;2023-03-15T08:36:21;1.77;;;0.65;;
38787;SDS011;24536;45.488;12.238;2023-03-15T08:38:47;1.60;;;0.50;;
38787;SDS011;24536;45.488;12.238;2023-03-15T08:41:13;0.75;;;0.38;;
38787;SDS011;24536;45.488;12.238;2023-03-15T08:43:39;4.82;;;0.57;;
38787;SDS011;24536;45.488;12.238;2023-03-15T08:46:05;2.60;;;0.60;;
38787;SDS011;24536;45.488;12.238;2023-03-15T08:48:30;2.25;;;0.70;;
38787;SDS011;24536;45.488;12.238;2023-03-15T08:51:03;0.68;;;0.40;;
38787;SDS011;24536;45.488;12.238;2023-03-15T08:53:30;2.00;;;0.70;;
38787;SDS011;24536;45.488;12.238;2023-03-15T08:55:57;0.30;;;0.20;;
38787;SDS011;24536;45.488;12.238;2023-03-15T08:58:23;0.45;;;0.30;;
38787;SDS011;24536;45.488;12.238;2023-03-15T09:00:49;2.05;;;0.30;;
38787;SDS011;24536;45.488;12.238;2023-03-15T09:03:16;1.50;;;0.45;;
38787;SDS011;24536;45.488;12.238;2023-03-15T09:05:43;0.88;;;0.15;;
38787;SDS011;24536;45.488;12.238;2023-03-15T09:08:09;1.90;;;0.30;;
38787;SDS011;24536;45.488;12.238;2023-03-15T09:10:35;0.63;;;0.22;;
38787;SDS011;24536;45.488;12.238;2023-03-15T09:13:00;2.72;;;0.40;;
38787;SDS011;24536;45.488;12.238;2023-03-15T09:15:26;0.85;;;0.40;;
38787;SDS011;24536;45.488;12.238;2023-03-15T09:17:53;1.48;;;0.40;;
38787;SDS011;24536;45.488;12.238;2023-03-15T09:20:18;0.60;;;0.30;;
38787;SDS011;24536;45.488;12.238;2023-03-15T09:22:50;0.70;;;0.20;;
38787;SDS011;24536;45.488;12.238;2023-03-15T09:25:17;0.45;;;0.10;;
38787;SDS011;24536;45.488;12.238;2023-03-15T09:27:44;0.20;;;0.20;;
38787;SDS011;24536;45.488;12.238;2023-03-15T09:30:10;0.30;;;0.20;;
38787;SDS011;24536;45.488;12.238;2023-03-15T09:32:36;1.25;;;0.20;;
38787;SDS011;24536;45.488;12.238;2023-03-15T09:35:02;0.98;;;0.30;;
38787;SDS011;24536;45.488;12.238;2023-03-15T09:37:29;1.65;;;0.15;;
38787;SDS011;24536;45.488;12.238;2023-03-15T09:39:55;1.52;;;0.22;;
38787;SDS011;24536;45.488;12.238;2023-03-15T09:45:17;0.57;;;0.20;;
38787;SDS011;24536;45.488;12.238;2023-03-15T09:48:09;1.25;;;0.30;;
38787;SDS011;24536;45.488;12.238;2023-03-15T09:51:17;0.77;;;0.20;;
38787;SDS011;24536;45.488;12.238;2023-03-15T09:53:51;0.75;;;0.20;;
38787;SDS011;24536;45.488;12.238;2023-03-15T09:56:33;0.10;;;0.10;;
38787;SDS011;24536;45.488;12.238;2023-03-15T09:59:02;1.55;;;0.40;;
38787;SDS011;24536;45.488;12.238;2023-03-15T10:01:39;0.85;;;0.40;;
38787;SDS011;24536;45.488;12.238;2023-03-15T10:06:56;0.50;;;0.30;;
38787;SDS011;24536;45.488;12.238;2023-03-15T10:09:28;0.52;;;0.40;;
38787;SDS011;24536;45.488;12.238;2023-03-15T10:17:02;1.02;;;0.50;;
38787;SDS011;24536;45.488;12.238;2023-03-15T10:19:48;0.43;;;0.40;;
38787;SDS011;24536;45.488;12.238;2023-03-15T10:22:29;0.98;;;0.40;;
38787;SDS011;24536;45.488;12.238;2023-03-15T10:25:03;1.08;;;0.47;;
38787;SDS011;24536;45.488;12.238;2023-03-15T10:27:49;1.55;;;0.60;;
38787;SDS011;24536;45.488;12.238;2023-03-15T10:30:30;1.00;;;0.63;;
38787;SDS011;24536;45.488;12.238;2023-03-15T10:35:52;1.38;;;0.60;;
38787;SDS011;24536;45.488;12.238;2023-03-15T10:38:19;0.90;;;0.60;;
38787;SDS011;24536;45.488;12.238;2023-03-15T10:40:48;1.00;;;0.60;;
38787;SDS011;24536;45.488;12.238;2023-03-15T10:46:20;4.20;;;1.00;;
38787;SDS011;24536;45.488;12.238;2023-03-15T10:49:07;3.97;;;1.27;;
38787;SDS011;24536;45.488;12.238;2023-03-15T10:51:43;1.35;;;0.70;;
38787;SDS011;24536;45.488;12.238;2023-03-15T10:54:19;2.58;;;0.80;;
38787;SDS011;24536;45.488;12.238;2023-03-15T10:57:02;1.88;;;0.90;;
38787;SDS011;24536;45.488;12.238;2023-03-15T10:59:30;1.13;;;0.77;;
38787;SDS011;24536;45.488;12.238;2023-03-15T11:04:31;2.13;;;0.68;;
38787;SDS011;24536;45.488;12.238;2023-03-15T11:09:27;2.17;;;0.70;;
38787;SDS011;24536;45.488;12.238;2023-03-15T11:12:04;3.45;;;1.10;;
38787;SDS011;24536;45.488;12.238;2023-03-15T11:17:01;1.50;;;0.70;;
38787;SDS011;24536;45.488;12.238;2023-03-15T11:19:29;1.00;;;0.50;;
38787;SDS011;24536;45.488;12.238;2023-03-15T11:21:58;0.40;;;0.32;;
38787;SDS011;24536;45.488;12.238;2023-03-15T11:24:27;1.15;;;0.32;;
38787;SDS011;24536;45.488;12.238;2023-03-15T11:26:55;1.88;;;0.70;;
38787;SDS011;24536;45.488;12.238;2023-03-15T11:29:35;0.85;;;0.50;;
38787;SDS011;24536;45.488;12.238;2023-03-15T11:32:09;0.50;;;0.40;;
38787;SDS011;24536;45.488;12.238;2023-03-15T11:37:25;1.27;;;0.38;;
38787;SDS011;24536;45.488;12.238;2023-03-15T11:39:59;0.20;;;0.20;;
38787;SDS011;24536;45.488;12.238;2023-03-15T11:42:45;1.30;;;0.47;;
38787;SDS011;24536;45.488;12.238;2023-03-15T11:47:53;0.55;;;0.38;;
38787;SDS011;24536;45.488;12.238;2023-03-15T11:50:22;0.28;;;0.28;;
38787;SDS011;24536;45.488;12.238;2023-03-15T11:52:51;0.68;;;0.40;;
38787;SDS011;24536;45.488;12.238;2023-03-15T11:55:24;0.80;;;0.35;;
38787;SDS011;24536;45.488;12.238;2023-03-15T11:57:51;1.33;;;0.65;;
38787;SDS011;24536;45.488;12.238;2023-03-15T12:02:53;0.60;;;0.60;;
38787;SDS011;24536;45.488;12.238;2023-03-15T12:11:11;3.88;;;1.08;;
38787;SDS011;24536;45.488;12.238;2023-03-15T12:13:50;2.17;;;0.75;;
38787;SDS011;24536;45.488;12.238;2023-03-15T12:16:24;0.47;;;0.30;;
38787;SDS011;24536;45.488;12.238;2023-03-15T12:18:55;0.40;;;0.40;;
38787;SDS011;24536;45.488;12.238;2023-03-15T12:21:30;1.88;;;0.40;;
38787;SDS011;24536;45.488;12.238;2023-03-15T12:26:42;1.77;;;0.77;;
38787;SDS011;24536;45.488;12.238;2023-03-15T12:29:14;2.78;;;0.80;;
38787;SDS011;24536;45.488;12.238;2023-03-15T12:31:51;1.70;;;0.80;;
38787;SDS011;24536;45.488;12.238;2023-03-15T12:37:17;0.60;;;0.60;;
38787;SDS011;24536;45.488;12.238;2023-03-15T12:45:47;2.80;;;0.68;;
38787;SDS011;24536;45.488;12.238;2023-03-15T12:50:37;3.60;;;0.50;;
38787;SDS011;24536;45.488;12.238;2023-03-15T12:59:02;0.85;;;0.52;;
38787;SDS011;24536;45.488;12.238;2023-03-15T13:01:39;2.80;;;0.60;;
38787;SDS011;24536;45.488;12.238;2023-03-15T13:04:07;2.97;;;0.60;;
38787;SDS011;24536;45.488;12.238;2023-03-15T13:06:39;2.53;;;0.75;;
38787;SDS011;24536;45.488;12.238;2023-03-15T13:11:55;4.38;;;0.70;;
38787;SDS011;24536;45.488;12.238;2023-03-15T13:20:12;1.08;;;0.60;;
38787;SDS011;24536;45.488;12.238;2023-03-15T13:26:02;1.38;;;0.65;;
38787;SDS011;24536;45.488;12.238;2023-03-15T13:33:46;2.88;;;0.60;;
38787;SDS011;24536;45.488;12.238;2023-03-15T13:36:23;4.90;;;1.08;;
38787;SDS011;24536;45.488;12.238;2023-03-15T13:41:47;1.08;;;0.55;;
38787;SDS011;24536;45.488;12.238;2023-03-15T13:44:20;1.60;;;0.80;;
38787;SDS011;24536;45.488;12.238;2023-03-15T13:46:48;0.68;;;0.40;;
38787;SDS011;24536;45.488;12.238;2023-03-15T13:49:14;1.10;;;0.70;;
38787;SDS011;24536;45.488;12.238;2023-03-15T13:51:40;1.27;;;0.70;;
38787;SDS011;24536;45.488;12.238;2023-03-15T13:59:20;0.95;;;0.50;;
38787;SDS011;24536;45.488;12.238;2023-03-15T14:01:50;2.95;;;0.70;;
38787;SDS011;24536;45.488;12.238;2023-03-15T14:04:18;1.70;;;0.77;;
38787;SDS011;24536;45.488;12.238;2023-03-15T14:06:47;1.57;;;0.77;;
38787;SDS011;24536;45.488;12.238;2023-03-15T14:09:18;0.90;;;0.60;;
38787;SDS011;24536;45.488;12.238;2023-03-15T14:11:51;3.28;;;0.70;;
38787;SDS011;24536;45.488;12.238;2023-03-15T14:14:29;1.77;;;0.75;;
38787;SDS011;24536;45.488;12.238;2023-03-15T14:16:57;1.10;;;0.63;;
38787;SDS011;24536;45.488;12.238;2023-03-15T14:19:27;1.33;;;0.52;;
38787;SDS011;24536;45.488;12.238;2023-03-15T14:21:59;1.30;;;0.40;;
38787;SDS011;24536;45.488;12.238;2023-03-15T14:24:39;3.17;;;0.40;;
38787;SDS011;24536;45.488;12.238;2023-03-15T14:27:08;0.85;;;0.43;;
38787;SDS011;24536;45.488;12.238;2023-03-15T14:29:45;2.33;;;0.60;;
38787;SDS011;24536;45.488;12.238;2023-03-15T14:32:30;3.17;;;0.65;;
38787;SDS011;24536;45.488;12.238;2023-03-15T14:35:06;1.77;;;0.47;;
38787;SDS011;24536;45.488;12.238;2023-03-15T14:38:01;1.35;;;0.45;;
38787;SDS011;24536;45.488;12.238;2023-03-15T14:40:32;1.67;;;0.80;;
38787;SDS011;24536;45.488;12.238;2023-03-15T14:43:02;1.52;;;0.63;;
38787;SDS011;24536;45.488;12.238;2023-03-15T14:45:31;1.23;;;0.70;;
38787;SDS011;24536;45.488;12.238;2023-03-15T14:47:59;1.23;;;0.52;;
38787;SDS011;24536;45.488;12.238;2023-03-15T14:50:45;1.23;;;0.57;;
38787;SDS011;24536;45.488;12.238;2023-03-15T14:53:13;1.67;;;0.40;;
38787;SDS011;24536;45.488;12.238;2023-03-15T14:58:12;0.65;;;0.60;;
38787;SDS011;24536;45.488;12.238;2023-03-15T15:00:39;1.17;;;0.80;;
38787;SDS011;24536;45.488;12.238;2023-03-15T15:06:02;0.77;;;0.50;;
38787;SDS011;24536;45.488;12.238;2023-03-15T15:08:29;1.20;;;0.70;;
38787;SDS011;24536;45.488;12.238;2023-03-15T15:10:56;0.90;;;0.70;;
38787;SDS011;24536;45.488;12.238;2023-03-15T15:13:26;1.08;;;0.73;;
38787;SDS011;24536;45.488;12.238;2023-03-15T15:15:54;1.77;;;0.73;;
38787;SDS011;24536;45.488;12.238;2023-03-15T15:18:20;1.35;;;0.90;;
38787;SDS011;24536;45.488;12.238;2023-03-15T15:20:47;2.53;;;0.80;;
38787;SDS011;24536;45.488;12.238;2023-03-15T15:23:37;1.13;;;0.60;;
38787;SDS011;24536;45.488;12.238;2023-03-15T15:26:03;1.30;;;0.50;;
38787;SDS011;24536;45.488;12.238;2023-03-15T15:28:30;1.35;;;0.70;;
38787;SDS011;24536;45.488;12.238;2023-03-15T15:30:57;1.52;;;0.40;;
38787;SDS011;24536;45.488;12.238;2023-03-15T15:33:23;1.55;;;0.73;;
38787;SDS011;24536;45.488;12.238;2023-03-15T15:35:53;0.93;;;0.50;;
38787;SDS011;24536;45.488;12.238;2023-03-15T15:38:20;0.63;;;0.63;;
38787;SDS011;24536;45.488;12.238;2023-03-15T15:40:49;2.97;;;0.80;;
38787;SDS011;24536;45.488;12.238;2023-03-15T15:43:16;1.02;;;0.50;;
38787;SDS011;24536;45.488;12.238;2023-03-15T15:45:42;1.50;;;0.70;;
38787;SDS011;24536;45.488;12.238;2023-03-15T15:48:08;2.45;;;0.88;;
38787;SDS011;24536;45.488;12.238;2023-03-15T15:50:34;2.17;;;0.90;;
38787;SDS011;24536;45.488;12.238;2023-03-15T15:53:02;1.25;;;0.70;;
38787;SDS011;24536;45.488;12.238;2023-03-15T15:55:31;0.85;;;0.50;;
38787;SDS011;24536;45.488;12.238;2023-03-15T15:57:58;0.63;;;0.35;;
38787;SDS011;24536;45.488;12.238;2023-03-15T16:00:26;2.15;;;0.50;;
38787;SDS011;24536;45.488;12.238;2023-03-15T16:02:53;0.85;;;0.47;;
38787;SDS011;24536;45.488;12.238;2023-03-15T16:05:21;1.90;;;0.50;;
38787;SDS011;24536;45.488;12.238;2023-03-15T16:07:52;1.10;;;0.57;;
38787;SDS011;24536;45.488;12.238;2023-03-15T16:10:20;2.15;;;0.50;;
38787;SDS011;24536;45.488;12.238;2023-03-15T16:12:51;0.82;;;0.60;;
38787;SDS011;24536;45.488;12.238;2023-03-15T16:15:19;1.10;;;0.50;;
38787;SDS011;24536;45.488;12.238;2023-03-15T16:17:45;2.85;;;0.55;;
38787;SDS011;24536;45.488;12.238;2023-03-15T16:20:11;1.10;;;0.68;;
38787;SDS011;24536;45.488;12.238;2023-03-15T16:22:41;1.27;;;0.60;;
38787;SDS011;24536;45.488;12.238;2023-03-15T16:25:19;1.40;;;0.80;;